sensor_id;sensor_type;location;lat;lon;timestamp;P1;durP1;ratioP1;P2;durP2;ratioP2
14992;SDS011;7592;51.088;13.732;2024-01-30T00:02:40;18.77;;;14.20;;
14992;SDS011;7592;51.088;13.732;2024-01-30T00:07:34;20.57;;;14.40;;
14992;SDS011;7592;51.088;13.732;2024-01-30T00:12:26;19.73;;;14.53;;
14992;SDS011;7592;51.088;13.732;2024-01-30T00:17:19;21.83;;;13.53;;
14992;SDS011;7592;51.088;13.732;2024-01-30T00:22:12;18.27;;;13.30;;
14992;SDS011;7592;51.088;13.732;2024-01-30T00:27:04;21.67;;;13.30;;
14992;SDS011;7592;51.088;13.732;2024-01-30T00:31:56;27.60;;;15.17;;
14992;SDS011;7592;51.088;13.732;2024-01-30T00:36:48;20.57;;;14.07;;
14992;SDS011;7592;51.088;13.732;2024-01-30T00:41:40;21.40;;;14.93;;
14992;SDS011;7592;51.088;13.732;2024-01-30T00:46:33;21.87;;;14.17;;
14992;SDS011;7592;51.088;13.732;2024-01-30T00:51:25;21.03;;;14.80;;
14992;SDS011;7592;51.088;13.732;2024-01-30T00:56:17;19.57;;;13.67;;
14992;SDS011;7592;51.088;13.732;2024-01-30T01:01:10;20.23;;;14.03;;
14992;SDS011;7592;51.088;13.732;2024-01-30T01:06:03;17.53;;;13.63;;
14992;SDS011;7592;51.088;13.732;2024-01-30T01:10:56;21.20;;;14.57;;
14992;SDS011;7592;51.088;13.732;2024-01-30T01:15:48;21.40;;;14.13;;
14992;SDS011;7592;51.088;13.732;2024-01-30T01:20:41;19.77;;;14.00;;
14992;SDS011;7592;51.088;13.732;2024-01-30T01:25:33;21.40;;;14.20;;
14992;SDS011;7592;51.088;13.732;2024-01-30T01:30:25;20.80;;;13.80;;
14992;SDS011;7592;51.088;13.732;2024-01-30T01:35:21;20.13;;;12.93;;
14992;SDS011;7592;51.088;13.732;2024-01-30T01:40:17;18.47;;;13.20;;
14992;SDS011;7592;51.088;13.732;2024-01-30T01:45:09;17.60;;;13.30;;
14992;SDS011;7592;51.088;13.732;2024-01-30T01:50:01;18.40;;;13.37;;
14992;SDS011;7592;51.088;13.732;2024-01-30T01:54:55;18.33;;;13.13;;
14992;SDS011;7592;51.088;13.732;2024-01-30T01:59:47;20.03;;;14.43;;
14992;SDS011;7592;51.088;13.732;2024-01-30T02:04:39;20.53;;;13.67;;
14992;SDS011;7592;51.088;13.732;2024-01-30T02:09:32;20.17;;;13.60;;
14992;SDS011;7592;51.088;13.732;2024-01-30T02:14:25;18.87;;;13.17;;
14992;SDS011;7592;51.088;13.732;2024-01-30T02:19:20;18.70;;;12.53;;
14992;SDS011;7592;51.088;13.732;2024-01-30T02:24:13;19.50;;;13.70;;
14992;SDS011;7592;51.088;13.732;2024-01-30T02:29:05;21.33;;;13.50;;
14992;SDS011;7592;51.088;13.732;2024-01-30T02:33:57;22.30;;;14.50;;
14992;SDS011;7592;51.088;13.732;2024-01-30T02:38:49;22.13;;;14.07;;
14992;SDS011;7592;51.088;13.732;2024-01-30T02:43:41;21.27;;;13.70;;
14992;SDS011;7592;51.088;13.732;2024-01-30T02:48:34;20.73;;;13.03;;
14992;SDS011;7592;51.088;13.732;2024-01-30T02:53:26;17.27;;;12.93;;
14992;SDS011;7592;51.088;13.732;2024-01-30T02:58:18;17.40;;;12.97;;
14992;SDS011;7592;51.088;13.732;2024-01-30T03:03:10;22.37;;;14.47;;
14992;SDS011;7592;51.088;13.732;2024-01-30T03:08:03;20.63;;;13.83;;
14992;SDS011;7592;51.088;13.732;2024-01-30T03:12:56;20.83;;;13.83;;
14992;SDS011;7592;51.088;13.732;2024-01-30T03:17:48;19.17;;;13.50;;
14992;SDS011;7592;51.088;13.732;2024-01-30T03:22:41;21.77;;;14.20;;
14992;SDS011;7592;51.088;13.732;2024-01-30T03:27:33;21.33;;;14.13;;
14992;SDS011;7592;51.088;13.732;2024-01-30T03:32:26;21.77;;;13.67;;
14992;SDS011;7592;51.088;13.732;2024-01-30T03:37:18;20.80;;;14.50;;
14992;SDS011;7592;51.088;13.732;2024-01-30T03:42:10;23.30;;;14.07;;
14992;SDS011;7592;51.088;13.732;2024-01-30T03:47:03;17.53;;;12.90;;
14992;SDS011;7592;51.088;13.732;2024-01-30T03:51:55;22.37;;;14.43;;
14992;SDS011;7592;51.088;13.732;2024-01-30T03:56:47;18.73;;;13.57;;
14992;SDS011;7592;51.088;13.732;2024-01-30T04:01:39;20.17;;;12.83;;
14992;SDS011;7592;51.088;13.732;2024-01-30T04:06:32;20.03;;;13.43;;
14992;SDS011;7592;51.088;13.732;2024-01-30T04:11:24;20.47;;;14.03;;
14992;SDS011;7592;51.088;13.732;2024-01-30T04:16:20;17.67;;;13.13;;
14992;SDS011;7592;51.088;13.732;2024-01-30T04:21:15;19.20;;;13.77;;
14992;SDS011;7592;51.088;13.732;2024-01-30T04:26:07;19.30;;;14.03;;
14992;SDS011;7592;51.088;13.732;2024-01-30T04:31:00;23.17;;;14.10;;
14992;SDS011;7592;51.088;13.732;2024-01-30T04:35:52;19.47;;;13.30;;
14992;SDS011;7592;51.088;13.732;2024-01-30T04:40:44;20.50;;;13.70;;
14992;SDS011;7592;51.088;13.732;2024-01-30T04:45:36;19.97;;;13.20;;
14992;SDS011;7592;51.088;13.732;2024-01-30T04:50:28;17.60;;;13.37;;
14992;SDS011;7592;51.088;13.732;2024-01-30T04:55:21;21.07;;;14.30;;
14992;SDS011;7592;51.088;13.732;2024-01-30T05:00:14;22.13;;;12.23;;
14992;SDS011;7592;51.088;13.732;2024-01-30T05:05:06;20.00;;;13.57;;
14992;SDS011;7592;51.088;13.732;2024-01-30T05:09:59;20.40;;;13.73;;
14992;SDS011;7592;51.088;13.732;2024-01-30T05:14:56;19.20;;;13.10;;
14992;SDS011;7592;51.088;13.732;2024-01-30T05:19:48;21.70;;;13.17;;
14992;SDS011;7592;51.088;13.732;2024-01-30T05:24:40;21.00;;;13.53;;
14992;SDS011;7592;51.088;13.732;2024-01-30T05:29:34;22.00;;;13.13;;
14992;SDS011;7592;51.088;13.732;2024-01-30T05:34:26;19.37;;;12.77;;
14992;SDS011;7592;51.088;13.732;2024-01-30T05:39:18;21.47;;;13.40;;
14992;SDS011;7592;51.088;13.732;2024-01-30T05:44:10;19.07;;;13.13;;
14992;SDS011;7592;51.088;13.732;2024-01-30T05:49:02;20.53;;;13.47;;
14992;SDS011;7592;51.088;13.732;2024-01-30T05:53:54;23.63;;;14.20;;
14992;SDS011;7592;51.088;13.732;2024-01-30T05:58:47;18.07;;;14.17;;
14992;SDS011;7592;51.088;13.732;2024-01-30T06:03:39;21.23;;;14.03;;
14992;SDS011;7592;51.088;13.732;2024-01-30T06:08:32;21.67;;;13.43;;
14992;SDS011;7592;51.088;13.732;2024-01-30T06:13:24;21.10;;;12.60;;
14992;SDS011;7592;51.088;13.732;2024-01-30T06:18:16;20.87;;;13.70;;
14992;SDS011;7592;51.088;13.732;2024-01-30T06:23:08;19.73;;;12.53;;
14992;SDS011;7592;51.088;13.732;2024-01-30T06:28:01;22.00;;;13.57;;
14992;SDS011;7592;51.088;13.732;2024-01-30T06:32:53;19.70;;;15.13;;
14992;SDS011;7592;51.088;13.732;2024-01-30T06:37:45;21.83;;;13.80;;
14992;SDS011;7592;51.088;13.732;2024-01-30T06:42:37;20.73;;;12.57;;
14992;SDS011;7592;51.088;13.732;2024-01-30T06:47:29;19.57;;;12.90;;
14992;SDS011;7592;51.088;13.732;2024-01-30T06:52:22;21.13;;;12.07;;
14992;SDS011;7592;51.088;13.732;2024-01-30T06:57:14;17.53;;;12.17;;
14992;SDS011;7592;51.088;13.732;2024-01-30T07:02:06;17.30;;;12.93;;
14992;SDS011;7592;51.088;13.732;2024-01-30T07:06:59;18.10;;;12.47;;
14992;SDS011;7592;51.088;13.732;2024-01-30T07:11:53;18.47;;;12.47;;
14992;SDS011;7592;51.088;13.732;2024-01-30T07:16:46;19.90;;;13.40;;
14992;SDS011;7592;51.088;13.732;2024-01-30T07:21:39;17.83;;;12.17;;
14992;SDS011;7592;51.088;13.732;2024-01-30T07:26:32;20.43;;;12.73;;
14992;SDS011;7592;51.088;13.732;2024-01-30T07:31:24;20.30;;;13.77;;
14992;SDS011;7592;51.088;13.732;2024-01-30T07:36:18;16.73;;;12.07;;
14992;SDS011;7592;51.088;13.732;2024-01-30T07:41:10;16.90;;;12.43;;
14992;SDS011;7592;51.088;13.732;2024-01-30T07:46:05;18.53;;;11.53;;
14992;SDS011;7592;51.088;13.732;2024-01-30T07:50:58;21.97;;;13.57;;
14992;SDS011;7592;51.088;13.732;2024-01-30T07:56:02;18.20;;;12.20;;
14992;SDS011;7592;51.088;13.732;2024-01-30T08:00:56;17.63;;;12.60;;
14992;SDS011;7592;51.088;13.732;2024-01-30T08:05:50;13.77;;;11.23;;
14992;SDS011;7592;51.088;13.732;2024-01-30T08:10:42;13.43;;;10.50;;
14992;SDS011;7592;51.088;13.732;2024-01-30T08:15:34;16.87;;;10.77;;
14992;SDS011;7592;51.088;13.732;2024-01-30T08:20:26;15.40;;;11.43;;
14992;SDS011;7592;51.088;13.732;2024-01-30T08:25:18;15.27;;;10.63;;
14992;SDS011;7592;51.088;13.732;2024-01-30T08:30:12;15.83;;;11.23;;
14992;SDS011;7592;51.088;13.732;2024-01-30T08:35:04;25.60;;;17.13;;
14992;SDS011;7592;51.088;13.732;2024-01-30T08:39:58;17.23;;;10.90;;
14992;SDS011;7592;51.088;13.732;2024-01-30T08:44:51;15.43;;;10.80;;
14992;SDS011;7592;51.088;13.732;2024-01-30T08:49:44;15.97;;;10.80;;
14992;SDS011;7592;51.088;13.732;2024-01-30T08:54:37;15.70;;;10.57;;
14992;SDS011;7592;51.088;13.732;2024-01-30T08:59:29;15.07;;;10.60;;
14992;SDS011;7592;51.088;13.732;2024-01-30T09:04:21;13.90;;;10.97;;
14992;SDS011;7592;51.088;13.732;2024-01-30T09:09:16;13.57;;;10.73;;
14992;SDS011;7592;51.088;13.732;2024-01-30T09:14:09;13.63;;;9.97;;
14992;SDS011;7592;51.088;13.732;2024-01-30T09:19:01;13.33;;;10.30;;
14992;SDS011;7592;51.088;13.732;2024-01-30T09:24:01;13.50;;;10.87;;
14992;SDS011;7592;51.088;13.732;2024-01-30T09:28:57;18.43;;;11.30;;
14992;SDS011;7592;51.088;13.732;2024-01-30T09:33:50;12.77;;;9.70;;
14992;SDS011;7592;51.088;13.732;2024-01-30T09:38:43;13.67;;;10.03;;
14992;SDS011;7592;51.088;13.732;2024-01-30T09:43:35;14.13;;;10.33;;
14992;SDS011;7592;51.088;13.732;2024-01-30T09:48:29;13.67;;;10.60;;
14992;SDS011;7592;51.088;13.732;2024-01-30T09:53:22;15.83;;;10.83;;
14992;SDS011;7592;51.088;13.732;2024-01-30T09:58:14;14.63;;;10.97;;
14992;SDS011;7592;51.088;13.732;2024-01-30T10:03:06;15.87;;;10.67;;
14992;SDS011;7592;51.088;13.732;2024-01-30T10:07:59;14.30;;;10.90;;
14992;SDS011;7592;51.088;13.732;2024-01-30T10:12:51;15.13;;;10.63;;
14992;SDS011;7592;51.088;13.732;2024-01-30T10:17:45;16.43;;;11.30;;
14992;SDS011;7592;51.088;13.732;2024-01-30T10:22:37;13.07;;;10.57;;
14992;SDS011;7592;51.088;13.732;2024-01-30T10:27:31;15.57;;;11.07;;
14992;SDS011;7592;51.088;13.732;2024-01-30T10:32:23;13.87;;;10.80;;
14992;SDS011;7592;51.088;13.732;2024-01-30T10:37:17;14.73;;;10.33;;
14992;SDS011;7592;51.088;13.732;2024-01-30T10:42:13;13.50;;;10.90;;
14992;SDS011;7592;51.088;13.732;2024-01-30T10:47:11;14.07;;;10.33;;
14992;SDS011;7592;51.088;13.732;2024-01-30T10:52:05;14.03;;;11.23;;
14992;SDS011;7592;51.088;13.732;2024-01-30T10:56:59;16.50;;;11.17;;
14992;SDS011;7592;51.088;13.732;2024-01-30T11:01:53;14.00;;;10.50;;
14992;SDS011;7592;51.088;13.732;2024-01-30T11:06:45;16.63;;;11.40;;
14992;SDS011;7592;51.088;13.732;2024-01-30T11:11:48;13.87;;;11.20;;
14992;SDS011;7592;51.088;13.732;2024-01-30T11:16:49;15.53;;;11.43;;
14992;SDS011;7592;51.088;13.732;2024-01-30T11:21:41;15.60;;;12.00;;
14992;SDS011;7592;51.088;13.732;2024-01-30T11:26:34;16.60;;;11.53;;
14992;SDS011;7592;51.088;13.732;2024-01-30T11:31:26;13.57;;;10.73;;
14992;SDS011;7592;51.088;13.732;2024-01-30T11:36:19;14.73;;;10.73;;
14992;SDS011;7592;51.088;13.732;2024-01-30T11:41:15;16.60;;;11.47;;
14992;SDS011;7592;51.088;13.732;2024-01-30T11:46:07;17.87;;;12.00;;
14992;SDS011;7592;51.088;13.732;2024-01-30T11:51:01;13.53;;;9.83;;
14992;SDS011;7592;51.088;13.732;2024-01-30T11:55:53;18.77;;;12.13;;
14992;SDS011;7592;51.088;13.732;2024-01-30T12:00:55;17.37;;;11.60;;
14992;SDS011;7592;51.088;13.732;2024-01-30T12:05:54;16.00;;;11.33;;
14992;SDS011;7592;51.088;13.732;2024-01-30T12:10:55;17.43;;;11.77;;
14992;SDS011;7592;51.088;13.732;2024-01-30T12:15:50;14.80;;;11.87;;
14992;SDS011;7592;51.088;13.732;2024-01-30T12:20:43;17.37;;;12.17;;
14992;SDS011;7592;51.088;13.732;2024-01-30T12:25:36;20.07;;;12.67;;
14992;SDS011;7592;51.088;13.732;2024-01-30T12:30:28;20.40;;;12.10;;
14992;SDS011;7592;51.088;13.732;2024-01-30T12:35:21;16.80;;;12.53;;
14992;SDS011;7592;51.088;13.732;2024-01-30T12:40:15;30.70;;;19.67;;
14992;SDS011;7592;51.088;13.732;2024-01-30T12:45:08;16.57;;;12.47;;
14992;SDS011;7592;51.088;13.732;2024-01-30T12:50:01;19.27;;;14.03;;
14992;SDS011;7592;51.088;13.732;2024-01-30T12:54:55;18.20;;;12.33;;
14992;SDS011;7592;51.088;13.732;2024-01-30T12:59:47;15.23;;;12.17;;
14992;SDS011;7592;51.088;13.732;2024-01-30T13:04:40;16.63;;;12.63;;
14992;SDS011;7592;51.088;13.732;2024-01-30T13:09:36;18.07;;;12.03;;
14992;SDS011;7592;51.088;13.732;2024-01-30T13:14:29;18.43;;;11.93;;
14992;SDS011;7592;51.088;13.732;2024-01-30T13:19:21;19.40;;;13.33;;
14992;SDS011;7592;51.088;13.732;2024-01-30T13:24:14;19.87;;;13.60;;
14992;SDS011;7592;51.088;13.732;2024-01-30T13:29:06;18.30;;;13.17;;
14992;SDS011;7592;51.088;13.732;2024-01-30T13:33:58;20.00;;;13.00;;
14992;SDS011;7592;51.088;13.732;2024-01-30T13:38:51;19.23;;;13.60;;
14992;SDS011;7592;51.088;13.732;2024-01-30T13:43:43;18.57;;;12.93;;
14992;SDS011;7592;51.088;13.732;2024-01-30T13:48:36;20.60;;;12.67;;
14992;SDS011;7592;51.088;13.732;2024-01-30T13:53:28;22.07;;;13.60;;
14992;SDS011;7592;51.088;13.732;2024-01-30T13:58:20;21.03;;;13.53;;
14992;SDS011;7592;51.088;13.732;2024-01-30T14:03:13;17.50;;;12.63;;
14992;SDS011;7592;51.088;13.732;2024-01-30T14:08:05;22.33;;;13.23;;
14992;SDS011;7592;51.088;13.732;2024-01-30T14:12:57;21.50;;;14.90;;
14992;SDS011;7592;51.088;13.732;2024-01-30T14:17:49;19.90;;;13.60;;
14992;SDS011;7592;51.088;13.732;2024-01-30T14:22:42;15.73;;;13.57;;
14992;SDS011;7592;51.088;13.732;2024-01-30T14:27:35;22.33;;;14.30;;
14992;SDS011;7592;51.088;13.732;2024-01-30T14:32:27;23.07;;;13.70;;
14992;SDS011;7592;51.088;13.732;2024-01-30T14:37:20;21.73;;;15.07;;
14992;SDS011;7592;51.088;13.732;2024-01-30T14:42:13;21.00;;;15.10;;
14992;SDS011;7592;51.088;13.732;2024-01-30T14:47:05;23.00;;;13.80;;
14992;SDS011;7592;51.088;13.732;2024-01-30T14:51:58;20.13;;;14.73;;
14992;SDS011;7592;51.088;13.732;2024-01-30T14:56:50;20.67;;;14.43;;
14992;SDS011;7592;51.088;13.732;2024-01-30T15:01:43;22.77;;;15.50;;
14992;SDS011;7592;51.088;13.732;2024-01-30T15:06:37;26.50;;;14.73;;
14992;SDS011;7592;51.088;13.732;2024-01-30T15:11:29;25.00;;;16.03;;
14992;SDS011;7592;51.088;13.732;2024-01-30T15:16:22;24.27;;;15.80;;
14992;SDS011;7592;51.088;13.732;2024-01-30T15:21:15;22.57;;;15.73;;
14992;SDS011;7592;51.088;13.732;2024-01-30T15:26:11;25.37;;;15.27;;
14992;SDS011;7592;51.088;13.732;2024-01-30T15:31:04;23.37;;;16.37;;
14992;SDS011;7592;51.088;13.732;2024-01-30T15:36:00;21.20;;;14.73;;
14992;SDS011;7592;51.088;13.732;2024-01-30T15:40:53;27.70;;;17.50;;
14992;SDS011;7592;51.088;13.732;2024-01-30T15:45:46;26.33;;;16.70;;
14992;SDS011;7592;51.088;13.732;2024-01-30T15:50:38;25.27;;;15.93;;
14992;SDS011;7592;51.088;13.732;2024-01-30T15:55:31;24.10;;;15.57;;
14992;SDS011;7592;51.088;13.732;2024-01-30T16:00:23;28.67;;;16.33;;
14992;SDS011;7592;51.088;13.732;2024-01-30T16:05:15;23.17;;;16.53;;
14992;SDS011;7592;51.088;13.732;2024-01-30T16:10:08;24.20;;;16.07;;
14992;SDS011;7592;51.088;13.732;2024-01-30T16:15:03;27.03;;;17.20;;
14992;SDS011;7592;51.088;13.732;2024-01-30T16:19:55;28.10;;;16.77;;
14992;SDS011;7592;51.088;13.732;2024-01-30T16:24:47;24.10;;;16.40;;
14992;SDS011;7592;51.088;13.732;2024-01-30T16:29:40;26.07;;;16.77;;
14992;SDS011;7592;51.088;13.732;2024-01-30T16:34:32;27.60;;;16.97;;
14992;SDS011;7592;51.088;13.732;2024-01-30T16:39:27;27.37;;;17.83;;
14992;SDS011;7592;51.088;13.732;2024-01-30T16:44:19;24.93;;;17.27;;
14992;SDS011;7592;51.088;13.732;2024-01-30T16:49:12;27.83;;;17.87;;
14992;SDS011;7592;51.088;13.732;2024-01-30T16:54:04;25.27;;;16.60;;
14992;SDS011;7592;51.088;13.732;2024-01-30T16:58:56;24.37;;;16.57;;
14992;SDS011;7592;51.088;13.732;2024-01-30T17:03:48;26.43;;;18.03;;
14992;SDS011;7592;51.088;13.732;2024-01-30T17:08:40;26.50;;;18.00;;
14992;SDS011;7592;51.088;13.732;2024-01-30T17:13:32;28.50;;;17.60;;
14992;SDS011;7592;51.088;13.732;2024-01-30T17:18:24;33.33;;;19.27;;
14992;SDS011;7592;51.088;13.732;2024-01-30T17:23:16;28.73;;;18.93;;
14992;SDS011;7592;51.088;13.732;2024-01-30T17:28:09;25.83;;;16.90;;
14992;SDS011;7592;51.088;13.732;2024-01-30T17:33:01;28.83;;;19.03;;
14992;SDS011;7592;51.088;13.732;2024-01-30T17:37:54;30.20;;;19.10;;
14992;SDS011;7592;51.088;13.732;2024-01-30T17:42:46;34.70;;;19.80;;
14992;SDS011;7592;51.088;13.732;2024-01-30T17:47:38;30.53;;;18.63;;
14992;SDS011;7592;51.088;13.732;2024-01-30T17:52:30;32.03;;;19.80;;
14992;SDS011;7592;51.088;13.732;2024-01-30T17:57:23;30.20;;;19.23;;
14992;SDS011;7592;51.088;13.732;2024-01-30T18:02:15;31.77;;;18.87;;
14992;SDS011;7592;51.088;13.732;2024-01-30T18:07:07;30.63;;;19.67;;
14992;SDS011;7592;51.088;13.732;2024-01-30T18:12:00;30.77;;;19.87;;
14992;SDS011;7592;51.088;13.732;2024-01-30T18:16:52;34.67;;;19.93;;
14992;SDS011;7592;51.088;13.732;2024-01-30T18:21:44;31.07;;;19.53;;
14992;SDS011;7592;51.088;13.732;2024-01-30T18:26:37;31.37;;;20.20;;
14992;SDS011;7592;51.088;13.732;2024-01-30T18:31:29;33.63;;;19.30;;
14992;SDS011;7592;51.088;13.732;2024-01-30T18:36:21;31.57;;;20.93;;
14992;SDS011;7592;51.088;13.732;2024-01-30T18:41:14;36.43;;;21.33;;
14992;SDS011;7592;51.088;13.732;2024-01-30T18:46:07;34.87;;;20.93;;
14992;SDS011;7592;51.088;13.732;2024-01-30T18:51:00;32.87;;;19.77;;
14992;SDS011;7592;51.088;13.732;2024-01-30T18:55:52;33.30;;;21.30;;
14992;SDS011;7592;51.088;13.732;2024-01-30T19:00:44;32.73;;;20.43;;
14992;SDS011;7592;51.088;13.732;2024-01-30T19:05:39;33.50;;;20.87;;
14992;SDS011;7592;51.088;13.732;2024-01-30T19:10:32;38.80;;;22.93;;
14992;SDS011;7592;51.088;13.732;2024-01-30T19:15:33;38.63;;;21.93;;
14992;SDS011;7592;51.088;13.732;2024-01-30T19:20:26;35.27;;;20.87;;
14992;SDS011;7592;51.088;13.732;2024-01-30T19:25:18;34.27;;;21.40;;
14992;SDS011;7592;51.088;13.732;2024-01-30T19:30:11;35.20;;;21.77;;
14992;SDS011;7592;51.088;13.732;2024-01-30T19:35:03;35.07;;;21.57;;
14992;SDS011;7592;51.088;13.732;2024-01-30T19:39:58;37.80;;;22.87;;
14992;SDS011;7592;51.088;13.732;2024-01-30T19:44:50;34.37;;;21.17;;
14992;SDS011;7592;51.088;13.732;2024-01-30T19:49:42;36.13;;;21.90;;
14992;SDS011;7592;51.088;13.732;2024-01-30T19:54:35;38.00;;;23.10;;
14992;SDS011;7592;51.088;13.732;2024-01-30T19:59:27;36.13;;;21.37;;
14992;SDS011;7592;51.088;13.732;2024-01-30T20:04:20;31.07;;;20.27;;
14992;SDS011;7592;51.088;13.732;2024-01-30T20:09:13;32.47;;;19.60;;
14992;SDS011;7592;51.088;13.732;2024-01-30T20:14:05;36.40;;;20.17;;
14992;SDS011;7592;51.088;13.732;2024-01-30T20:18:57;31.60;;;20.57;;
14992;SDS011;7592;51.088;13.732;2024-01-30T20:23:50;35.93;;;21.03;;
14992;SDS011;7592;51.088;13.732;2024-01-30T20:28:43;37.53;;;20.90;;
14992;SDS011;7592;51.088;13.732;2024-01-30T20:33:35;34.63;;;20.93;;
14992;SDS011;7592;51.088;13.732;2024-01-30T20:38:28;32.13;;;20.00;;
14992;SDS011;7592;51.088;13.732;2024-01-30T20:43:21;39.23;;;22.33;;
14992;SDS011;7592;51.088;13.732;2024-01-30T20:48:13;38.50;;;22.17;;
14992;SDS011;7592;51.088;13.732;2024-01-30T20:53:05;39.17;;;22.70;;
14992;SDS011;7592;51.088;13.732;2024-01-30T20:57:58;33.93;;;21.60;;
14992;SDS011;7592;51.088;13.732;2024-01-30T21:02:50;41.53;;;24.03;;
14992;SDS011;7592;51.088;13.732;2024-01-30T21:07:42;40.00;;;22.90;;
14992;SDS011;7592;51.088;13.732;2024-01-30T21:12:34;36.97;;;22.30;;
14992;SDS011;7592;51.088;13.732;2024-01-30T21:17:26;39.73;;;23.50;;
14992;SDS011;7592;51.088;13.732;2024-01-30T21:22:19;37.23;;;22.67;;
14992;SDS011;7592;51.088;13.732;2024-01-30T21:27:11;40.20;;;24.67;;
14992;SDS011;7592;51.088;13.732;2024-01-30T21:32:03;39.80;;;23.90;;
14992;SDS011;7592;51.088;13.732;2024-01-30T21:36:57;43.83;;;24.57;;
14992;SDS011;7592;51.088;13.732;2024-01-30T21:41:49;43.33;;;24.07;;
14992;SDS011;7592;51.088;13.732;2024-01-30T21:46:41;44.53;;;24.23;;
14992;SDS011;7592;51.088;13.732;2024-01-30T21:51:33;42.13;;;23.90;;
14992;SDS011;7592;51.088;13.732;2024-01-30T21:56:25;40.27;;;23.50;;
14992;SDS011;7592;51.088;13.732;2024-01-30T22:01:17;37.20;;;23.63;;
14992;SDS011;7592;51.088;13.732;2024-01-30T22:06:10;42.70;;;24.03;;
14992;SDS011;7592;51.088;13.732;2024-01-30T22:11:02;40.80;;;23.50;;
14992;SDS011;7592;51.088;13.732;2024-01-30T22:15:58;39.37;;;22.47;;
14992;SDS011;7592;51.088;13.732;2024-01-30T22:20:50;36.63;;;22.00;;
14992;SDS011;7592;51.088;13.732;2024-01-30T22:25:43;42.23;;;24.23;;
14992;SDS011;7592;51.088;13.732;2024-01-30T22:30:36;39.40;;;23.63;;
14992;SDS011;7592;51.088;13.732;2024-01-30T22:35:28;40.73;;;21.67;;
14992;SDS011;7592;51.088;13.732;2024-01-30T22:40:20;38.67;;;22.97;;
14992;SDS011;7592;51.088;13.732;2024-01-30T22:45:13;47.93;;;25.53;;
14992;SDS011;7592;51.088;13.732;2024-01-30T22:50:06;43.60;;;24.97;;
14992;SDS011;7592;51.088;13.732;2024-01-30T22:54:58;42.13;;;24.60;;
14992;SDS011;7592;51.088;13.732;2024-01-30T22:59:50;45.43;;;23.63;;
14992;SDS011;7592;51.088;13.732;2024-01-30T23:04:45;37.70;;;22.57;;
14992;SDS011;7592;51.088;13.732;2024-01-30T23:09:37;43.50;;;25.30;;
14992;SDS011;7592;51.088;13.732;2024-01-30T23:14:33;42.07;;;24.50;;
14992;SDS011;7592;51.088;13.732;2024-01-30T23:19:25;40.00;;;25.67;;
14992;SDS011;7592;51.088;13.732;2024-01-30T23:24:18;47.03;;;25.40;;
14992;SDS011;7592;51.088;13.732;2024-01-30T23:29:10;51.13;;;25.93;;
14992;SDS011;7592;51.088;13.732;2024-01-30T23:34:02;45.20;;;25.10;;
14992;SDS011;7592;51.088;13.732;2024-01-30T23:38:54;42.57;;;25.13;;
14992;SDS011;7592;51.088;13.732;2024-01-30T23:43:46;46.70;;;25.10;;
14992;SDS011;7592;51.088;13.732;2024-01-30T23:48:38;43.03;;;24.20;;
14992;SDS011;7592;51.088;13.732;2024-01-30T23:53:30;44.93;;;24.83;;
14992;SDS011;7592;51.088;13.732;2024-01-30T23:58:23;44.57;;;25.33;;
